Country
Station

 

Weather  for  Le Puy  -  France    France

  
17 °C (63 °F)
    
 
 

Current METAR for Le Puy is :

LFHP 221900Z AUTO 18001KT CAVOK 17/12 Q1026

 

This is a report for Le Puy - France.
 
The report was made 8 hours and 19 minutes ago, at 19:00 UTC .
The wind was blowing at a speed of 0.5 meters per second (1.2 miles per hour) from south (180°).
 
The temperature was 17 °C (63 °F), with a dew-point at 12 °C (54 °F).
The atmospheric pressure was 1026 hPa (30.30 inHg).
The relative humidity was 72.4%.
 
There were no clouds below 1500 meter (5000 feet) and no cumulonimbus clouds.
 
The overall visibility was greater than 10 kilometers (6.2 miles).
 

 
 
 
 

Country :   A   B   C   D   E   F   G   H   I   J   K   L   M   N   O   P   Q   R   S   T   U   V   W   Y   Z

 

Site Info  |  Disclaimer  |  Credits  |  Privacy
Contact us  |  Add to favorites
© 2013-2019 METARs - All rights reserved